sensor_id;sensor_type;location;lat;lon;timestamp;temperature;humidity
47022;DHT22;32779;52.264;6.154;2023-09-30T00:01:09;11.70;99.90
47022;DHT22;32779;52.264;6.154;2023-09-30T00:03:36;11.70;99.90
47022;DHT22;32779;52.264;6.154;2023-09-30T00:06:01;11.70;99.90
47022;DHT22;32779;52.264;6.154;2023-09-30T00:08:27;11.80;99.90
47022;DHT22;32779;52.264;6.154;2023-09-30T00:10:52;11.80;99.90
47022;DHT22;32779;52.264;6.154;2023-09-30T00:13:20;11.80;99.90
47022;DHT22;32779;52.264;6.154;2023-09-30T00:15:45;11.80;99.90
47022;DHT22;32779;52.264;6.154;2023-09-30T00:18:11;11.80;99.90
47022;DHT22;32779;52.264;6.154;2023-09-30T00:20:36;11.80;99.90
47022;DHT22;32779;52.264;6.154;2023-09-30T00:23:02;11.70;99.90
47022;DHT22;32779;52.264;6.154;2023-09-30T00:25:27;11.80;99.90
47022;DHT22;32779;52.264;6.154;2023-09-30T00:27:53;11.80;99.90
47022;DHT22;32779;52.264;6.154;2023-09-30T00:30:18;11.80;99.90
47022;DHT22;32779;52.264;6.154;2023-09-30T00:32:44;11.80;99.90
47022;DHT22;32779;52.264;6.154;2023-09-30T00:35:09;11.80;99.90
47022;DHT22;32779;52.264;6.154;2023-09-30T00:37:39;11.80;99.90
47022;DHT22;32779;52.264;6.154;2023-09-30T00:40:05;11.80;99.90
47022;DHT22;32779;52.264;6.154;2023-09-30T00:42:30;11.80;99.90
47022;DHT22;32779;52.264;6.154;2023-09-30T00:44:56;11.80;99.90
47022;DHT22;32779;52.264;6.154;2023-09-30T00:47:22;11.80;99.90
47022;DHT22;32779;52.264;6.154;2023-09-30T00:49:48;11.90;99.90
47022;DHT22;32779;52.264;6.154;2023-09-30T00:52:14;11.90;99.90
47022;DHT22;32779;52.264;6.154;2023-09-30T00:54:39;11.80;99.90
47022;DHT22;32779;52.264;6.154;2023-09-30T00:57:05;11.90;99.90
47022;DHT22;32779;52.264;6.154;2023-09-30T00:59:31;11.90;99.90
47022;DHT22;32779;52.264;6.154;2023-09-30T01:01:58;11.80;99.90
47022;DHT22;32779;52.264;6.154;2023-09-30T01:04:24;11.80;99.90
47022;DHT22;32779;52.264;6.154;2023-09-30T01:06:51;11.90;99.90
47022;DHT22;32779;52.264;6.154;2023-09-30T01:09:17;11.90;99.90
47022;DHT22;32779;52.264;6.154;2023-09-30T01:11:42;11.90;99.90
47022;DHT22;32779;52.264;6.154;2023-09-30T01:14:27;11.80;99.90
47022;DHT22;32779;52.264;6.154;2023-09-30T01:16:53;11.80;99.90
47022;DHT22;32779;52.264;6.154;2023-09-30T01:19:19;11.80;99.90
47022;DHT22;32779;52.264;6.154;2023-09-30T01:21:45;11.80;99.90
47022;DHT22;32779;52.264;6.154;2023-09-30T01:24:14;11.80;99.90
47022;DHT22;32779;52.264;6.154;2023-09-30T01:26:39;11.80;99.90
47022;DHT22;32779;52.264;6.154;2023-09-30T01:29:05;11.80;99.90
47022;DHT22;32779;52.264;6.154;2023-09-30T01:31:30;11.70;99.90
47022;DHT22;32779;52.264;6.154;2023-09-30T01:33:56;11.70;99.90
47022;DHT22;32779;52.264;6.154;2023-09-30T01:36:22;11.70;99.90
47022;DHT22;32779;52.264;6.154;2023-09-30T01:38:47;11.70;99.90
47022;DHT22;32779;52.264;6.154;2023-09-30T01:41:13;11.70;99.90
47022;DHT22;32779;52.264;6.154;2023-09-30T01:43:38;11.60;99.90
47022;DHT22;32779;52.264;6.154;2023-09-30T01:46:04;11.60;99.90
47022;DHT22;32779;52.264;6.154;2023-09-30T01:48:31;11.60;99.90
47022;DHT22;32779;52.264;6.154;2023-09-30T01:50:56;11.60;99.90
47022;DHT22;32779;52.264;6.154;2023-09-30T01:53:22;11.50;99.90
47022;DHT22;32779;52.264;6.154;2023-09-30T01:55:47;11.60;99.90
47022;DHT22;32779;52.264;6.154;2023-09-30T01:58:13;11.60;99.90
47022;DHT22;32779;52.264;6.154;2023-09-30T02:00:39;11.50;99.90
47022;DHT22;32779;52.264;6.154;2023-09-30T02:03:04;11.50;99.90
47022;DHT22;32779;52.264;6.154;2023-09-30T02:05:30;11.50;99.90
47022;DHT22;32779;52.264;6.154;2023-09-30T02:07:56;11.50;99.90
47022;DHT22;32779;52.264;6.154;2023-09-30T02:10:21;11.50;99.90
47022;DHT22;32779;52.264;6.154;2023-09-30T02:12:47;11.50;99.90
47022;DHT22;32779;52.264;6.154;2023-09-30T02:15:12;11.50;99.90
47022;DHT22;32779;52.264;6.154;2023-09-30T02:17:38;11.50;99.90
47022;DHT22;32779;52.264;6.154;2023-09-30T02:20:04;11.50;99.90
47022;DHT22;32779;52.264;6.154;2023-09-30T02:22:38;11.50;99.90
47022;DHT22;32779;52.264;6.154;2023-09-30T02:25:06;11.50;99.90
47022;DHT22;32779;52.264;6.154;2023-09-30T02:27:33;11.40;99.90
47022;DHT22;32779;52.264;6.154;2023-09-30T02:29:58;11.40;99.90
47022;DHT22;32779;52.264;6.154;2023-09-30T02:32:24;11.40;99.90
47022;DHT22;32779;52.264;6.154;2023-09-30T02:34:49;11.40;99.90
47022;DHT22;32779;52.264;6.154;2023-09-30T02:37:15;11.40;99.90
47022;DHT22;32779;52.264;6.154;2023-09-30T02:39:42;11.40;99.90
47022;DHT22;32779;52.264;6.154;2023-09-30T02:42:08;11.40;99.90
47022;DHT22;32779;52.264;6.154;2023-09-30T02:44:34;11.40;99.90
47022;DHT22;32779;52.264;6.154;2023-09-30T02:46:59;11.40;99.90
47022;DHT22;32779;52.264;6.154;2023-09-30T02:49:25;11.40;99.90
47022;DHT22;32779;52.264;6.154;2023-09-30T02:51:50;11.40;99.90
47022;DHT22;32779;52.264;6.154;2023-09-30T02:54:16;11.30;99.90
47022;DHT22;32779;52.264;6.154;2023-09-30T02:56:41;11.30;99.90
47022;DHT22;32779;52.264;6.154;2023-09-30T02:59:07;11.20;99.90
47022;DHT22;32779;52.264;6.154;2023-09-30T03:01:33;11.20;99.90
47022;DHT22;32779;52.264;6.154;2023-09-30T03:03:58;11.10;99.90
47022;DHT22;32779;52.264;6.154;2023-09-30T03:06:24;11.10;99.90
47022;DHT22;32779;52.264;6.154;2023-09-30T03:08:49;11.10;99.90
47022;DHT22;32779;52.264;6.154;2023-09-30T03:11:15;11.10;99.90
47022;DHT22;32779;52.264;6.154;2023-09-30T03:13:41;11.00;99.90
47022;DHT22;32779;52.264;6.154;2023-09-30T03:16:08;11.00;99.90
47022;DHT22;32779;52.264;6.154;2023-09-30T03:18:33;11.00;99.90
47022;DHT22;32779;52.264;6.154;2023-09-30T03:20:59;11.00;99.90
47022;DHT22;32779;52.264;6.154;2023-09-30T03:23:34;11.00;99.90
47022;DHT22;32779;52.264;6.154;2023-09-30T03:26:00;11.00;99.90
47022;DHT22;32779;52.264;6.154;2023-09-30T03:28:29;11.00;99.90
47022;DHT22;32779;52.264;6.154;2023-09-30T03:30:54;11.00;99.90
47022;DHT22;32779;52.264;6.154;2023-09-30T03:33:21;11.00;99.90
47022;DHT22;32779;52.264;6.154;2023-09-30T03:35:47;11.00;99.90
47022;DHT22;32779;52.264;6.154;2023-09-30T03:38:12;11.00;99.90
47022;DHT22;32779;52.264;6.154;2023-09-30T03:40:39;11.00;99.90
47022;DHT22;32779;52.264;6.154;2023-09-30T03:43:05;11.10;99.90
47022;DHT22;32779;52.264;6.154;2023-09-30T03:45:35;11.20;99.90
47022;DHT22;32779;52.264;6.154;2023-09-30T03:48:02;11.20;99.90
47022;DHT22;32779;52.264;6.154;2023-09-30T03:50:28;11.20;99.90
47022;DHT22;32779;52.264;6.154;2023-09-30T03:53:04;11.30;99.90
47022;DHT22;32779;52.264;6.154;2023-09-30T03:55:32;11.20;99.90
47022;DHT22;32779;52.264;6.154;2023-09-30T03:57:58;11.30;99.90
47022;DHT22;32779;52.264;6.154;2023-09-30T04:00:24;11.30;99.90
47022;DHT22;32779;52.264;6.154;2023-09-30T04:02:50;11.30;99.90
47022;DHT22;32779;52.264;6.154;2023-09-30T04:05:19;11.30;99.90
47022;DHT22;32779;52.264;6.154;2023-09-30T04:07:44;11.40;99.90
47022;DHT22;32779;52.264;6.154;2023-09-30T04:10:10;11.30;99.90
47022;DHT22;32779;52.264;6.154;2023-09-30T04:12:36;11.30;99.90
47022;DHT22;32779;52.264;6.154;2023-09-30T04:15:02;11.30;99.90
47022;DHT22;32779;52.264;6.154;2023-09-30T04:17:29;11.30;99.90
47022;DHT22;32779;52.264;6.154;2023-09-30T04:19:54;11.30;99.90
47022;DHT22;32779;52.264;6.154;2023-09-30T04:22:20;11.30;99.90
47022;DHT22;32779;52.264;6.154;2023-09-30T04:24:46;11.30;99.90
47022;DHT22;32779;52.264;6.154;2023-09-30T04:27:12;11.40;99.90
47022;DHT22;32779;52.264;6.154;2023-09-30T04:29:37;11.40;99.90
47022;DHT22;32779;52.264;6.154;2023-09-30T04:32:04;11.40;99.90
47022;DHT22;32779;52.264;6.154;2023-09-30T04:34:30;11.40;99.90
47022;DHT22;32779;52.264;6.154;2023-09-30T04:36:55;11.40;99.90
47022;DHT22;32779;52.264;6.154;2023-09-30T04:39:21;11.40;99.90
47022;DHT22;32779;52.264;6.154;2023-09-30T04:41:47;11.40;99.90
47022;DHT22;32779;52.264;6.154;2023-09-30T04:44:12;11.50;99.90
47022;DHT22;32779;52.264;6.154;2023-09-30T04:46:38;11.40;99.90
47022;DHT22;32779;52.264;6.154;2023-09-30T04:49:14;11.50;99.90
47022;DHT22;32779;52.264;6.154;2023-09-30T04:51:40;11.50;99.90
47022;DHT22;32779;52.264;6.154;2023-09-30T04:54:05;11.50;99.90
47022;DHT22;32779;52.264;6.154;2023-09-30T04:56:34;11.60;99.90
47022;DHT22;32779;52.264;6.154;2023-09-30T04:59:00;11.60;99.90
47022;DHT22;32779;52.264;6.154;2023-09-30T05:01:26;11.60;99.90
47022;DHT22;32779;52.264;6.154;2023-09-30T05:03:51;11.60;99.90
47022;DHT22;32779;52.264;6.154;2023-09-30T05:06:17;11.60;99.90
47022;DHT22;32779;52.264;6.154;2023-09-30T05:08:42;11.60;99.90
47022;DHT22;32779;52.264;6.154;2023-09-30T05:11:08;11.60;99.90
47022;DHT22;32779;52.264;6.154;2023-09-30T05:13:33;11.60;99.90
47022;DHT22;32779;52.264;6.154;2023-09-30T05:16:02;11.50;99.90
47022;DHT22;32779;52.264;6.154;2023-09-30T05:18:28;11.50;99.90
47022;DHT22;32779;52.264;6.154;2023-09-30T05:20:55;11.50;99.90
47022;DHT22;32779;52.264;6.154;2023-09-30T05:23:20;11.50;99.90
47022;DHT22;32779;52.264;6.154;2023-09-30T05:25:46;11.50;99.90
47022;DHT22;32779;52.264;6.154;2023-09-30T05:28:11;11.40;99.90
47022;DHT22;32779;52.264;6.154;2023-09-30T05:30:38;11.40;99.90
47022;DHT22;32779;52.264;6.154;2023-09-30T05:33:05;11.40;99.90
47022;DHT22;32779;52.264;6.154;2023-09-30T05:35:31;11.40;99.90
47022;DHT22;32779;52.264;6.154;2023-09-30T05:37:57;11.40;99.90
47022;DHT22;32779;52.264;6.154;2023-09-30T05:40:23;11.40;99.90
47022;DHT22;32779;52.264;6.154;2023-09-30T05:42:52;11.40;99.90
47022;DHT22;32779;52.264;6.154;2023-09-30T05:45:18;11.40;99.90
47022;DHT22;32779;52.264;6.154;2023-09-30T05:47:44;11.40;99.90
47022;DHT22;32779;52.264;6.154;2023-09-30T05:50:12;11.40;99.90
47022;DHT22;32779;52.264;6.154;2023-09-30T05:52:42;11.40;99.90
47022;DHT22;32779;52.264;6.154;2023-09-30T05:55:08;11.40;99.90
47022;DHT22;32779;52.264;6.154;2023-09-30T05:57:33;11.40;99.90
47022;DHT22;32779;52.264;6.154;2023-09-30T06:00:00;11.40;99.90
47022;DHT22;32779;52.264;6.154;2023-09-30T06:02:26;11.40;99.90
47022;DHT22;32779;52.264;6.154;2023-09-30T06:04:51;11.50;99.90
47022;DHT22;32779;52.264;6.154;2023-09-30T06:07:19;11.50;99.90
47022;DHT22;32779;52.264;6.154;2023-09-30T06:09:45;11.50;99.90
47022;DHT22;32779;52.264;6.154;2023-09-30T06:12:12;11.40;99.90
47022;DHT22;32779;52.264;6.154;2023-09-30T06:14:38;11.40;99.90
47022;DHT22;32779;52.264;6.154;2023-09-30T06:17:03;11.40;99.90
47022;DHT22;32779;52.264;6.154;2023-09-30T06:19:29;11.30;99.90
47022;DHT22;32779;52.264;6.154;2023-09-30T06:21:55;11.30;99.90
47022;DHT22;32779;52.264;6.154;2023-09-30T06:24:21;11.40;99.90
47022;DHT22;32779;52.264;6.154;2023-09-30T06:26:47;11.40;99.90
47022;DHT22;32779;52.264;6.154;2023-09-30T06:29:14;11.50;99.90
47022;DHT22;32779;52.264;6.154;2023-09-30T06:31:40;11.70;99.90
47022;DHT22;32779;52.264;6.154;2023-09-30T06:34:05;11.90;99.90
47022;DHT22;32779;52.264;6.154;2023-09-30T06:36:32;12.10;99.90
47022;DHT22;32779;52.264;6.154;2023-09-30T06:38:57;12.30;99.90
47022;DHT22;32779;52.264;6.154;2023-09-30T06:41:24;12.50;99.90
47022;DHT22;32779;52.264;6.154;2023-09-30T06:43:50;12.60;99.90
47022;DHT22;32779;52.264;6.154;2023-09-30T06:46:17;12.90;99.90
47022;DHT22;32779;52.264;6.154;2023-09-30T06:48:42;13.00;99.90
47022;DHT22;32779;52.264;6.154;2023-09-30T06:51:12;13.20;99.90
47022;DHT22;32779;52.264;6.154;2023-09-30T06:53:38;13.40;99.90
47022;DHT22;32779;52.264;6.154;2023-09-30T06:56:04;13.60;99.90
47022;DHT22;32779;52.264;6.154;2023-09-30T06:58:30;13.70;99.90
47022;DHT22;32779;52.264;6.154;2023-09-30T07:00:55;13.80;99.90
47022;DHT22;32779;52.264;6.154;2023-09-30T07:03:21;13.90;99.90
47022;DHT22;32779;52.264;6.154;2023-09-30T07:05:47;13.90;99.90
47022;DHT22;32779;52.264;6.154;2023-09-30T07:08:16;14.00;99.90
47022;DHT22;32779;52.264;6.154;2023-09-30T07:10:42;14.00;99.90
47022;DHT22;32779;52.264;6.154;2023-09-30T07:13:07;14.10;99.90
47022;DHT22;32779;52.264;6.154;2023-09-30T07:15:33;14.10;99.90
47022;DHT22;32779;52.264;6.154;2023-09-30T07:17:59;14.10;99.90
47022;DHT22;32779;52.264;6.154;2023-09-30T07:20:24;14.20;99.90
47022;DHT22;32779;52.264;6.154;2023-09-30T07:22:50;14.30;99.90
47022;DHT22;32779;52.264;6.154;2023-09-30T07:25:16;14.30;99.90
47022;DHT22;32779;52.264;6.154;2023-09-30T07:27:45;14.40;99.90
47022;DHT22;32779;52.264;6.154;2023-09-30T07:30:11;14.50;99.90
47022;DHT22;32779;52.264;6.154;2023-09-30T07:32:37;14.60;99.90
47022;DHT22;32779;52.264;6.154;2023-09-30T07:35:03;14.70;99.90
47022;DHT22;32779;52.264;6.154;2023-09-30T07:37:29;14.80;99.90
47022;DHT22;32779;52.264;6.154;2023-09-30T07:39:54;14.80;99.90
47022;DHT22;32779;52.264;6.154;2023-09-30T07:42:20;14.90;99.90
47022;DHT22;32779;52.264;6.154;2023-09-30T07:44:45;15.00;99.90
47022;DHT22;32779;52.264;6.154;2023-09-30T07:47:10;15.10;99.90
47022;DHT22;32779;52.264;6.154;2023-09-30T07:49:37;15.20;99.90
47022;DHT22;32779;52.264;6.154;2023-09-30T07:52:03;15.30;99.90
47022;DHT22;32779;52.264;6.154;2023-09-30T07:54:29;15.40;99.90
47022;DHT22;32779;52.264;6.154;2023-09-30T07:56:54;15.50;99.90
47022;DHT22;32779;52.264;6.154;2023-09-30T07:59:20;15.70;99.90
47022;DHT22;32779;52.264;6.154;2023-09-30T08:01:47;15.70;99.90
47022;DHT22;32779;52.264;6.154;2023-09-30T08:04:13;15.80;99.90
47022;DHT22;32779;52.264;6.154;2023-09-30T08:06:38;15.80;99.90
47022;DHT22;32779;52.264;6.154;2023-09-30T08:09:05;15.80;99.90
47022;DHT22;32779;52.264;6.154;2023-09-30T08:11:36;15.90;99.90
47022;DHT22;32779;52.264;6.154;2023-09-30T08:14:05;16.00;99.90
47022;DHT22;32779;52.264;6.154;2023-09-30T08:16:34;16.10;99.90
47022;DHT22;32779;52.264;6.154;2023-09-30T08:19:00;16.10;99.90
47022;DHT22;32779;52.264;6.154;2023-09-30T08:21:26;16.20;99.90
47022;DHT22;32779;52.264;6.154;2023-09-30T08:23:52;16.20;99.90
47022;DHT22;32779;52.264;6.154;2023-09-30T08:26:17;16.30;99.90
47022;DHT22;32779;52.264;6.154;2023-09-30T08:28:42;16.30;99.90
47022;DHT22;32779;52.264;6.154;2023-09-30T08:31:08;16.30;99.90
47022;DHT22;32779;52.264;6.154;2023-09-30T08:33:34;16.40;99.90
47022;DHT22;32779;52.264;6.154;2023-09-30T08:36:04;16.40;99.90
47022;DHT22;32779;52.264;6.154;2023-09-30T08:38:36;16.40;99.90
47022;DHT22;32779;52.264;6.154;2023-09-30T08:41:02;16.40;99.90
47022;DHT22;32779;52.264;6.154;2023-09-30T08:43:28;16.40;99.90
47022;DHT22;32779;52.264;6.154;2023-09-30T08:45:57;16.50;99.90
47022;DHT22;32779;52.264;6.154;2023-09-30T08:48:23;16.50;99.90
47022;DHT22;32779;52.264;6.154;2023-09-30T08:50:50;16.50;99.90
47022;DHT22;32779;52.264;6.154;2023-09-30T08:53:16;16.60;99.90
47022;DHT22;32779;52.264;6.154;2023-09-30T08:55:43;16.60;99.90
47022;DHT22;32779;52.264;6.154;2023-09-30T08:58:09;16.70;99.90
47022;DHT22;32779;52.264;6.154;2023-09-30T09:00:35;16.70;99.90
47022;DHT22;32779;52.264;6.154;2023-09-30T09:03:01;16.80;99.90
47022;DHT22;32779;52.264;6.154;2023-09-30T09:05:28;16.80;99.90
47022;DHT22;32779;52.264;6.154;2023-09-30T09:07:53;16.80;99.90
47022;DHT22;32779;52.264;6.154;2023-09-30T09:10:19;16.80;99.90
47022;DHT22;32779;52.264;6.154;2023-09-30T09:12:45;16.90;99.90
47022;DHT22;32779;52.264;6.154;2023-09-30T09:15:20;16.90;99.90
47022;DHT22;32779;52.264;6.154;2023-09-30T09:17:47;16.90;99.90
47022;DHT22;32779;52.264;6.154;2023-09-30T09:20:19;16.90;99.90
47022;DHT22;32779;52.264;6.154;2023-09-30T09:22:46;17.00;99.90
47022;DHT22;32779;52.264;6.154;2023-09-30T09:25:12;17.00;99.90
47022;DHT22;32779;52.264;6.154;2023-09-30T09:27:37;17.00;99.90
47022;DHT22;32779;52.264;6.154;2023-09-30T09:30:16;17.00;99.90
47022;DHT22;32779;52.264;6.154;2023-09-30T09:35:20;17.20;99.90
47022;DHT22;32779;52.264;6.154;2023-09-30T09:40:25;17.30;99.90
47022;DHT22;32779;52.264;6.154;2023-09-30T09:42:51;17.40;99.90
47022;DHT22;32779;52.264;6.154;2023-09-30T09:45:19;17.40;99.90
47022;DHT22;32779;52.264;6.154;2023-09-30T09:47:45;17.50;99.90
47022;DHT22;32779;52.264;6.154;2023-09-30T09:50:13;17.50;99.90
47022;DHT22;32779;52.264;6.154;2023-09-30T09:52:38;17.50;99.90
47022;DHT22;32779;52.264;6.154;2023-09-30T09:55:05;17.60;99.90
47022;DHT22;32779;52.264;6.154;2023-09-30T09:57:31;17.60;99.90
47022;DHT22;32779;52.264;6.154;2023-09-30T09:59:57;17.60;99.90
47022;DHT22;32779;52.264;6.154;2023-09-30T10:02:23;17.70;99.90
47022;DHT22;32779;52.264;6.154;2023-09-30T10:04:50;17.70;99.90
47022;DHT22;32779;52.264;6.154;2023-09-30T10:09:46;17.90;99.90
47022;DHT22;32779;52.264;6.154;2023-09-30T10:12:12;17.90;99.90
47022;DHT22;32779;52.264;6.154;2023-09-30T10:14:38;17.90;99.90
47022;DHT22;32779;52.264;6.154;2023-09-30T10:17:03;18.00;99.90
47022;DHT22;32779;52.264;6.154;2023-09-30T10:19:29;18.10;99.90
47022;DHT22;32779;52.264;6.154;2023-09-30T10:24:40;18.10;99.90
47022;DHT22;32779;52.264;6.154;2023-09-30T10:29:59;18.10;99.90
47022;DHT22;32779;52.264;6.154;2023-09-30T10:35:41;18.10;99.90
47022;DHT22;32779;52.264;6.154;2023-09-30T10:40:48;18.00;99.90
47022;DHT22;32779;52.264;6.154;2023-09-30T10:43:32;18.00;99.90
47022;DHT22;32779;52.264;6.154;2023-09-30T10:45:58;17.90;99.90
47022;DHT22;32779;52.264;6.154;2023-09-30T10:50:50;18.00;99.90
47022;DHT22;32779;52.264;6.154;2023-09-30T10:53:16;18.10;99.90
47022;DHT22;32779;52.264;6.154;2023-09-30T10:55:43;18.10;99.90
47022;DHT22;32779;52.264;6.154;2023-09-30T10:58:10;18.20;99.90
47022;DHT22;32779;52.264;6.154;2023-09-30T11:00:35;18.40;99.90
47022;DHT22;32779;52.264;6.154;2023-09-30T11:03:01;18.40;99.90
47022;DHT22;32779;52.264;6.154;2023-09-30T11:05:27;18.40;99.90
47022;DHT22;32779;52.264;6.154;2023-09-30T11:07:53;18.40;99.90
47022;DHT22;32779;52.264;6.154;2023-09-30T11:10:22;18.50;99.90
47022;DHT22;32779;52.264;6.154;2023-09-30T11:12:57;18.50;99.90
47022;DHT22;32779;52.264;6.154;2023-09-30T11:15:23;18.60;99.90
47022;DHT22;32779;52.264;6.154;2023-09-30T11:17:49;18.60;99.90
47022;DHT22;32779;52.264;6.154;2023-09-30T11:20:16;18.70;99.90
47022;DHT22;32779;52.264;6.154;2023-09-30T11:22:41;18.80;99.90
47022;DHT22;32779;52.264;6.154;2023-09-30T11:25:14;18.90;99.90
47022;DHT22;32779;52.264;6.154;2023-09-30T11:27:39;19.00;99.90
47022;DHT22;32779;52.264;6.154;2023-09-30T11:30:05;19.10;99.90
47022;DHT22;32779;52.264;6.154;2023-09-30T11:32:33;19.10;99.90
47022;DHT22;32779;52.264;6.154;2023-09-30T11:34:59;19.20;99.90
47022;DHT22;32779;52.264;6.154;2023-09-30T11:37:30;19.10;99.90
47022;DHT22;32779;52.264;6.154;2023-09-30T11:40:07;19.10;99.90
47022;DHT22;32779;52.264;6.154;2023-09-30T11:42:33;19.00;99.90
47022;DHT22;32779;52.264;6.154;2023-09-30T11:44:58;18.90;99.90
47022;DHT22;32779;52.264;6.154;2023-09-30T11:47:30;18.90;99.90
47022;DHT22;32779;52.264;6.154;2023-09-30T11:50:00;18.90;99.90
47022;DHT22;32779;52.264;6.154;2023-09-30T11:52:26;19.00;99.90
47022;DHT22;32779;52.264;6.154;2023-09-30T11:54:52;19.10;99.90
47022;DHT22;32779;52.264;6.154;2023-09-30T11:57:18;19.20;99.90
47022;DHT22;32779;52.264;6.154;2023-09-30T11:59:44;19.30;99.90
47022;DHT22;32779;52.264;6.154;2023-09-30T12:02:10;19.40;99.90
47022;DHT22;32779;52.264;6.154;2023-09-30T12:04:36;19.50;99.90
47022;DHT22;32779;52.264;6.154;2023-09-30T12:07:02;19.50;99.90
47022;DHT22;32779;52.264;6.154;2023-09-30T12:09:28;19.50;99.90
47022;DHT22;32779;52.264;6.154;2023-09-30T12:11:54;19.60;99.90
47022;DHT22;32779;52.264;6.154;2023-09-30T12:14:20;19.60;99.90
47022;DHT22;32779;52.264;6.154;2023-09-30T12:16:46;19.70;99.90
47022;DHT22;32779;52.264;6.154;2023-09-30T12:19:13;19.70;99.90
47022;DHT22;32779;52.264;6.154;2023-09-30T12:21:39;19.80;99.90
47022;DHT22;32779;52.264;6.154;2023-09-30T12:24:06;19.90;99.90
47022;DHT22;32779;52.264;6.154;2023-09-30T12:26:33;19.90;99.90
47022;DHT22;32779;52.264;6.154;2023-09-30T12:28:58;20.00;99.90
47022;DHT22;32779;52.264;6.154;2023-09-30T12:31:24;20.10;99.90
47022;DHT22;32779;52.264;6.154;2023-09-30T12:33:50;20.20;99.90
47022;DHT22;32779;52.264;6.154;2023-09-30T12:36:20;20.20;99.90
47022;DHT22;32779;52.264;6.154;2023-09-30T12:38:47;20.10;99.90
47022;DHT22;32779;52.264;6.154;2023-09-30T12:41:12;20.10;99.90
47022;DHT22;32779;52.264;6.154;2023-09-30T12:43:38;20.00;99.90
47022;DHT22;32779;52.264;6.154;2023-09-30T12:46:03;20.00;99.90
47022;DHT22;32779;52.264;6.154;2023-09-30T12:48:31;19.90;99.90
47022;DHT22;32779;52.264;6.154;2023-09-30T12:50:56;19.90;99.90
47022;DHT22;32779;52.264;6.154;2023-09-30T12:53:21;19.80;99.90
47022;DHT22;32779;52.264;6.154;2023-09-30T12:55:47;19.80;99.90
47022;DHT22;32779;52.264;6.154;2023-09-30T12:58:12;19.80;99.90
47022;DHT22;32779;52.264;6.154;2023-09-30T13:00:38;19.70;99.90
47022;DHT22;32779;52.264;6.154;2023-09-30T13:03:04;19.70;99.90
47022;DHT22;32779;52.264;6.154;2023-09-30T13:05:29;19.70;99.90
47022;DHT22;32779;52.264;6.154;2023-09-30T13:07:58;19.80;99.90
47022;DHT22;32779;52.264;6.154;2023-09-30T13:10:23;19.80;99.90
47022;DHT22;32779;52.264;6.154;2023-09-30T13:12:49;19.70;99.90
47022;DHT22;32779;52.264;6.154;2023-09-30T13:15:15;19.70;99.90
47022;DHT22;32779;52.264;6.154;2023-09-30T13:17:40;19.70;99.90
47022;DHT22;32779;52.264;6.154;2023-09-30T13:20:06;19.70;99.90
47022;DHT22;32779;52.264;6.154;2023-09-30T13:22:34;19.60;99.90
47022;DHT22;32779;52.264;6.154;2023-09-30T13:25:00;19.60;99.90
47022;DHT22;32779;52.264;6.154;2023-09-30T13:27:26;19.70;99.90
47022;DHT22;32779;52.264;6.154;2023-09-30T13:29:51;19.70;99.90
47022;DHT22;32779;52.264;6.154;2023-09-30T13:32:20;19.70;99.90
47022;DHT22;32779;52.264;6.154;2023-09-30T13:34:45;19.80;99.90
47022;DHT22;32779;52.264;6.154;2023-09-30T13:37:10;19.80;99.90
47022;DHT22;32779;52.264;6.154;2023-09-30T13:39:36;19.90;99.90
47022;DHT22;32779;52.264;6.154;2023-09-30T13:42:01;20.00;99.90
47022;DHT22;32779;52.264;6.154;2023-09-30T13:44:27;20.00;99.90
47022;DHT22;32779;52.264;6.154;2023-09-30T13:46:53;20.00;99.90
47022;DHT22;32779;52.264;6.154;2023-09-30T13:49:18;20.00;99.90
47022;DHT22;32779;52.264;6.154;2023-09-30T13:51:44;20.00;99.90
47022;DHT22;32779;52.264;6.154;2023-09-30T13:54:09;20.00;99.90
47022;DHT22;32779;52.264;6.154;2023-09-30T13:56:35;20.00;99.90
47022;DHT22;32779;52.264;6.154;2023-09-30T13:59:00;19.90;99.90
47022;DHT22;32779;52.264;6.154;2023-09-30T14:01:26;19.90;99.90
47022;DHT22;32779;52.264;6.154;2023-09-30T14:03:52;20.00;99.90
47022;DHT22;32779;52.264;6.154;2023-09-30T14:06:21;20.00;99.90
47022;DHT22;32779;52.264;6.154;2023-09-30T14:08:46;20.00;99.90
47022;DHT22;32779;52.264;6.154;2023-09-30T14:11:12;20.00;99.90
47022;DHT22;32779;52.264;6.154;2023-09-30T14:13:37;20.00;99.90
47022;DHT22;32779;52.264;6.154;2023-09-30T14:16:05;20.00;99.90
47022;DHT22;32779;52.264;6.154;2023-09-30T14:18:30;20.00;99.90
47022;DHT22;32779;52.264;6.154;2023-09-30T14:20:56;20.10;99.90
47022;DHT22;32779;52.264;6.154;2023-09-30T14:23:22;20.00;99.90
47022;DHT22;32779;52.264;6.154;2023-09-30T14:25:49;20.10;99.90
47022;DHT22;32779;52.264;6.154;2023-09-30T14:28:14;20.10;99.90
47022;DHT22;32779;52.264;6.154;2023-09-30T14:30:40;20.00;99.90
47022;DHT22;32779;52.264;6.154;2023-09-30T14:33:05;20.10;99.90
47022;DHT22;32779;52.264;6.154;2023-09-30T14:35:34;20.00;99.90
47022;DHT22;32779;52.264;6.154;2023-09-30T14:38:00;20.10;99.90
47022;DHT22;32779;52.264;6.154;2023-09-30T14:40:26;20.00;99.90
47022;DHT22;32779;52.264;6.154;2023-09-30T14:42:51;20.00;99.90
47022;DHT22;32779;52.264;6.154;2023-09-30T14:45:19;20.00;99.90
47022;DHT22;32779;52.264;6.154;2023-09-30T14:47:46;20.00;99.90
47022;DHT22;32779;52.264;6.154;2023-09-30T14:50:12;19.90;99.90
47022;DHT22;32779;52.264;6.154;2023-09-30T14:52:37;19.90;99.90
47022;DHT22;32779;52.264;6.154;2023-09-30T14:55:03;19.80;99.90
47022;DHT22;32779;52.264;6.154;2023-09-30T14:57:29;19.80;99.90
47022;DHT22;32779;52.264;6.154;2023-09-30T14:59:56;19.70;99.90
47022;DHT22;32779;52.264;6.154;2023-09-30T15:02:22;19.60;99.90
47022;DHT22;32779;52.264;6.154;2023-09-30T15:04:48;19.60;99.90
47022;DHT22;32779;52.264;6.154;2023-09-30T15:07:14;19.60;99.90
47022;DHT22;32779;52.264;6.154;2023-09-30T15:09:39;19.60;99.90
47022;DHT22;32779;52.264;6.154;2023-09-30T15:12:05;19.60;99.90
47022;DHT22;32779;52.264;6.154;2023-09-30T15:14:31;19.70;99.90
47022;DHT22;32779;52.264;6.154;2023-09-30T15:16:56;19.70;99.90
47022;DHT22;32779;52.264;6.154;2023-09-30T15:19:22;19.60;99.90
47022;DHT22;32779;52.264;6.154;2023-09-30T15:21:47;19.60;99.90
47022;DHT22;32779;52.264;6.154;2023-09-30T15:24:13;19.60;99.90
47022;DHT22;32779;52.264;6.154;2023-09-30T15:26:38;19.60;99.90
47022;DHT22;32779;52.264;6.154;2023-09-30T15:29:04;19.50;99.90
47022;DHT22;32779;52.264;6.154;2023-09-30T15:31:30;19.50;99.90
47022;DHT22;32779;52.264;6.154;2023-09-30T15:33:56;19.50;99.90
47022;DHT22;32779;52.264;6.154;2023-09-30T15:36:21;19.40;99.90
47022;DHT22;32779;52.264;6.154;2023-09-30T15:38:47;19.40;99.90
47022;DHT22;32779;52.264;6.154;2023-09-30T15:41:13;19.40;99.90
47022;DHT22;32779;52.264;6.154;2023-09-30T15:43:39;19.30;99.90
47022;DHT22;32779;52.264;6.154;2023-09-30T15:46:04;19.20;99.90